Latest Weather Observations for Portland Harbour

IDV60801

Issued at 4:02 pm EDT Friday 27 March 2015 (issued every 30 minutes, with the page automatically refreshed every 10 minutes)

About weather observations | Map of weather stations | Latest weather observations for VIC | Other Formats
Station Details ID: 090192 Name: PORTLAND NTC AWS Lat: -38.34 Lon: 141.61 Height: 0.0 m
Data from the previous 72 hours. | See also: Recent months for locations in Victoria
Date/Time
EDT
Temp
°C
App
Temp
°C
Dew
Point
Rel
Hum
%
Delta-T
°C
Wind Press
QNH
hPa
Press
MSL
hPa
Rain
since 9 am
mm
Dir
 
Spd
km/h
Gust
km/h
Spd
kts
Gust
kts
27/04:00pm - - - - - SSW 20 30 11 16 1025.1 1025.1 -
27/03:30pm - - - - - SSW 19 26 10 14 1025.1 1025.1 -
27/03:00pm - - - - - SSW 19 28 10 15 1025.2 1025.2 -
27/02:30pm - - - - - SSW 26 37 14 20 1025.6 1025.6 -
27/02:00pm - - - - - SSW 20 28 11 15 1025.7 1025.7 -
27/01:30pm - - - - - SSW 20 28 11 15 1026.0 1026.0 -
27/01:00pm - - - - - SW 17 28 9 15 1026.1 1026.1 -
27/12:30pm - - - - - WSW 22 35 12 19 1026.2 1026.2 -
27/12:00pm 14.8 - - - - WSW 13 20 7 11 1026.0 1026.0 -
27/11:30am - - - - - SW 19 24 10 13 1026.0 1026.0 -
27/11:00am - - - - - SSW 22 32 12 17 1025.9 1025.9 -
27/10:30am - - - - - SSW 24 32 13 17 1025.9 1025.9 -
27/10:00am - - - - - SSW 26 35 14 19 1025.7 1025.7 -
27/09:30am - - - - - SSW 28 37 15 20 1025.5 1025.5 -
27/09:00am - - - - - SW 22 33 12 18 1025.3 1025.3 -
27/08:30am - - - - - SW 19 22 10 12 1025.0 1025.0 -
27/08:00am - - - - - SSW 24 37 13 20 1024.7 1024.7 -
27/07:30am - - - - - SW 22 37 12 20 1024.4 1024.4 -
27/07:00am - - - - - SW 19 24 10 13 1023.9 1023.9 -
27/06:30am - - - - - SW 19 28 10 15 1023.7 1023.7 -
27/06:00am - - - - - SW 20 28 11 15 1023.4 1023.4 -
27/05:30am - - - - - SW 15 22 8 12 1023.3 1023.3 -
27/05:00am - - - - - SW 24 32 13 17 1023.1 1023.1 -
27/04:30am - - - - - SW 22 35 12 19 1023.0 1023.0 -
27/04:00am - - - - - SW 22 32 12 17 1022.8 1022.8 -
27/03:30am - - - - - SW 32 48 17 26 1022.9 1022.9 -
27/03:27am 14.1 - - - - SW 28 48 15 26 1022.9 1022.9 -
27/03:00am 14.0 - - - - SW 24 33 13 18 1022.8 1022.8 -
27/02:30am - - - - - SW 20 28 11 15 1022.7 1022.7 -
27/02:00am - - - - - SW 24 39 13 21 1022.7 1022.7 -
27/01:30am 14.0 - - - - SW 20 30 11 16 1022.5 1022.5 -
27/01:00am - - - - - SW 22 35 12 19 1022.5 1022.5 -
27/12:30am - - - - - SW 24 39 13 21 1022.5 1022.5 -
27/12:00am - - - - - SW 28 41 15 22 1022.5 1022.5 -
 
Date/Time
EDT
Temp
°C
App
Temp
°C
Dew
Point
Rel
Hum
%
Delta-T
°C
Wind Press
QNH
hPa
Press
MSL
hPa
Rain
since 9 am
mm
Dir
 
Spd
km/h
Gust
km/h
Spd
kts
Gust
kts
26/11:30pm - - - - - SW 26 39 14 21 1022.4 1022.4 -
26/11:00pm - - - - - SSW 30 44 16 24 1022.1 1022.1 -
26/10:30pm - - - - - SSW 32 46 17 25 1022.0 1022.0 -
26/10:00pm - - - - - SW 26 37 14 20 1021.6 1021.6 -
26/09:30pm - - - - - SW 30 44 16 24 1021.2 1021.2 -
26/09:03pm 14.5 - - - - SW 32 50 17 27 1020.7 1020.7 -
26/09:00pm 14.5 - - - - SW 30 44 16 24 1020.7 1020.7 -
26/08:31pm - - - - - SW 33 52 18 28 1020.4 1020.4 -
26/08:30pm - - - - - SW 35 52 19 28 1020.3 1020.3 -
26/08:04pm - - - - - SW 30 48 16 26 1020.0 1020.0 -
26/08:00pm - - - - - SW 30 41 16 22 1019.8 1019.8 -
26/07:30pm - - - - - SW 32 54 17 29 1019.2 1019.2 -
26/07:26pm - - - - - SW 32 54 17 29 1019.1 1019.1 -
26/07:00pm 14.3 - - - - SW 26 39 14 21 1018.7 1018.7 -
26/06:30pm 13.4 - - - - SW 33 52 18 28 1018.4 1018.4 -
26/06:06pm - - - - - WSW 37 72 20 39 1018.0 1018.0 -
26/06:00pm - - - - - WSW 37 54 20 29 1017.7 1017.7 -
26/05:32pm - - - - - WSW 33 52 18 28 1017.3 1017.3 -
26/05:30pm - - - - - WSW 35 52 19 28 1017.3 1017.3 -
26/05:00pm 14.6 - - - - WSW 43 70 23 38 1016.8 1016.8 -
26/04:30pm - - - - - WSW 46 69 25 37 1016.5 1016.5 -
26/04:00pm - - - - - WSW 44 69 24 37 1016.2 1016.2 -
26/03:30pm - - - - - WSW 48 74 26 40 1016.1 1016.1 -
26/03:00pm 13.6 - - - - WSW 43 65 23 35 1015.7 1015.7 -
26/02:30pm - - - - - W 46 65 25 35 1015.6 1015.6 -
26/02:00pm 13.0 - - - - WSW 48 78 26 42 1015.7 1015.7 -
26/01:55pm - - - - - WSW 43 78 23 42 1015.9 1015.9 -
26/01:30pm 13.4 - - - - W 37 57 20 31 1015.5 1015.5 -
26/01:00pm 12.8 - - - - W 35 61 19 33 1016.0 1016.0 -
26/12:30pm 11.9 - - - - W 35 54 19 29 1016.0 1016.0 -
26/12:00pm 11.7 - - - - W 32 61 17 33 1016.2 1016.2 -
26/11:39am 11.3 - - - - W 28 46 15 25 1016.4 1016.4 -
26/11:30am 11.3 - - - - W 26 43 14 23 1016.6 1016.6 -
26/11:11am 12.1 - - - - W 32 56 17 30 1016.5 1016.5 -
26/11:00am 13.0 - - - - W 35 52 19 28 1016.0 1016.0 -
26/10:30am 12.9 - - - - W 30 59 16 32 1016.1 1016.1 -
26/10:08am 13.2 - - - - W 37 57 20 31 1016.3 1016.3 -
26/10:00am 12.9 - - - - W 33 46 18 25 1015.8 1015.8 -
26/09:38am 13.2 - - - - W 28 48 15 26 1015.9 1015.9 -
26/09:30am 12.8 - - - - W 28 43 15 23 1016.0 1016.0 -
26/09:11am 12.5 - - - - W 28 46 15 25 1015.9 1015.9 -
26/09:00am 12.6 - - - - WNW 19 30 10 16 1015.9 1015.9 -
26/08:30am 11.5 - - - - WNW 15 30 8 16 1015.9 1015.9 -
26/08:00am 10.9 - - - - W 19 32 10 17 1015.7 1015.7 -
26/07:30am 9.6 - - - - NNW 17 24 9 13 1015.4 1015.4 -
26/07:00am 6.9 - - - - WSW 30 54 16 29 1015.6 1015.6 -
26/06:56am 7.7 - - - - WSW 28 54 15 29 1016.2 1016.2 -
26/06:30am 11.2 - - - - W 15 22 8 12 1015.1 1015.1 -
26/06:00am 10.8 - - - - WNW 13 24 7 13 1015.0 1015.0 -
26/05:30am 10.3 - - - - WNW 17 26 9 14 1014.6 1014.6 -
26/05:00am 10.2 - - - - WSW 26 37 14 20 1014.5 1014.5 -
26/04:30am 10.5 - - - - WSW 24 37 13 20 1014.6 1014.6 -
26/04:00am 10.9 - - - - WSW 33 57 18 31 1014.1 1014.1 -
26/03:57am 10.8 - - - - WSW 32 57 17 31 1014.0 1014.0 -
26/03:56am 10.7 - - - - WSW 30 48 16 26 1013.9 1013.9 -
26/03:30am 10.2 - - - - NW 19 28 10 15 1014.2 1014.2 -
26/03:00am 10.1 - - - - NNW 17 22 9 12 1014.1 1014.1 -
26/02:30am 10.4 - - - - NNW 15 28 8 15 1014.2 1014.2 -
26/02:00am 10.8 - - - - NNW 6 13 3 7 1014.3 1014.3 -
26/01:30am 10.7 - - - - WNW 13 24 7 13 1014.1 1014.1 -
26/01:00am 10.6 - - - - NW 13 20 7 11 1014.0 1014.0 -
26/12:30am 10.2 - - - - NW 15 20 8 11 1014.1 1014.1 -
26/12:00am 10.6 - - - - NW 15 20 8 11 1014.1 1014.1 -
 
Date/Time
EDT
Temp
°C
App
Temp
°C
Dew
Point
Rel
Hum
%
Delta-T
°C
Wind Press
QNH
hPa
Press
MSL
hPa
Rain
since 9 am
mm
Dir
 
Spd
km/h
Gust
km/h
Spd
kts
Gust
kts
25/11:30pm 10.8 - - - - W 20 32 11 17 1014.0 1014.0 -
25/11:00pm 10.9 - - - - NNW 17 22 9 12 1013.8 1013.8 -
25/10:30pm 10.4 - - - - NW 15 24 8 13 1014.1 1014.1 -
25/10:00pm 10.7 - - - - NNW 26 32 14 17 1013.6 1013.6 -
25/09:30pm 10.4 - - - - NW 20 30 11 16 1013.8 1013.8 -
25/09:00pm 10.9 - - - - NW 17 24 9 13 1013.3 1013.3 -
25/08:30pm 11.1 - - - - WNW 19 28 10 15 1013.2 1013.2 -
25/08:00pm 11.0 - - - - W 26 39 14 21 1013.3 1013.3 -
25/07:30pm 11.1 - - - - WSW 32 52 17 28 1013.0 1013.0 -
25/07:21pm 11.4 - - - - WSW 30 52 16 28 1012.9 1012.9 -
25/07:00pm 12.3 - - - - WSW 30 43 16 23 1012.4 1012.4 -
25/06:46pm 13.4 - - - - WSW 32 65 17 35 1012.1 1012.1 -
25/06:45pm 13.6 - - - - WSW 30 48 16 26 1012.0 1012.0 -
25/06:30pm 15.8 - - - - W 35 57 19 31 1011.3 1011.3 -
25/06:24pm 16.6 - - - - WNW 37 57 20 31 1011.1 1011.1 -
25/06:06pm 18.7 - - - - NW 28 48 15 26 1010.6 1010.6 -
25/06:00pm 18.7 - - - - NW 28 46 15 25 1010.6 1010.6 -
25/05:44pm 18.8 - - - - NNW 28 50 15 27 1010.4 1010.4 -
25/05:30pm 18.6 - - - - NNW 35 46 19 25 1010.5 1010.5 -
25/05:00pm 18.2 - - - - NNW 30 48 16 26 1010.8 1010.8 -
25/04:30pm 18.1 - - - - NNW 35 54 19 29 1010.9 1010.9 -
25/04:21pm 18.2 - - - - NNW 32 54 17 29 1011.2 1011.2 -
25/04:12pm 18.4 - - - - NNW 35 50 19 27 1011.3 1011.3 -
25/04:00pm 18.1 - - - - NNW 37 54 20 29 1011.6 1011.6 -
25/03:30pm 17.9 - - - - NNW 32 52 17 28 1012.0 1012.0 -
25/03:02pm 18.0 - - - - NNW 30 48 16 26 1012.3 1012.3 -
25/03:00pm 17.9 - - - - NNW 30 46 16 25 1012.4 1012.4 -
25/02:50pm 17.8 - - - - NNW 32 50 17 27 1012.5 1012.5 -
25/02:30pm 17.7 - - - - NNW 30 44 16 24 1013.0 1013.0 -
25/02:00pm 17.6 - - - - NNW 32 48 17 26 1013.5 1013.5 -
25/01:30pm 17.1 - - - - NNW 28 39 15 21 1014.0 1014.0 -
25/01:06pm 16.6 - - - - NNW 28 50 15 27 1014.5 1014.5 -
25/01:00pm 16.7 - - - - NNW 26 39 14 21 1014.7 1014.7 -
25/12:30pm 15.7 - - - - NNW 30 39 16 21 1015.4 1015.4 -
25/12:00pm 15.4 - - - - NNW 28 37 15 20 1015.9 1015.9 -
25/11:30am 14.6 - - - - NNW 20 30 11 16 1016.4 1016.4 -
25/11:00am 14.2 - - - - NNW 24 33 13 18 1016.8 1016.8 -
25/10:30am 13.7 - - - - NNW 22 26 12 14 1017.1 1017.1 -
25/10:00am 13.2 - - - - N 24 28 13 15 1016.9 1016.9 -
25/09:30am 13.0 - - - - NNW 22 28 12 15 1017.3 1017.3 -
25/09:00am 12.8 - - - - NNW 20 32 11 17 1017.6 1017.6 -
25/08:30am 12.7 - - - - NNW 19 24 10 13 1017.6 1017.6 -
25/08:00am 12.7 - - - - NNW 17 22 9 12 1017.4 1017.4 -
25/07:30am 12.4 - - - - NW 15 20 8 11 1017.7 1017.7 -
25/07:00am 12.8 - - - - NNW 19 22 10 12 1017.5 1017.5 -
25/06:30am 13.1 - - - - NNW 19 24 10 13 1017.4 1017.4 -
25/06:00am 12.7 - - - - NNW 15 20 8 11 1017.6 1017.6 -
25/05:30am 12.6 - - - - NW 13 17 7 9 1017.8 1017.8 -
25/05:00am 12.7 - - - - NW 13 19 7 10 1017.9 1017.9 -
25/04:30am 12.8 - - - - NW 13 17 7 9 1018.0 1018.0 -
25/04:00am 13.0 - - - - NNW 13 15 7 8 1018.3 1018.3 -
25/03:30am 13.0 - - - - NW 11 15 6 8 1018.8 1018.8 -
25/03:00am 13.0 - - - - NW 9 13 5 7 1019.2 1019.2 -
25/02:30am 13.1 - - - - NW 9 13 5 7 1019.4 1019.4 -
25/02:00am 13.3 - - - - NNW 13 19 7 10 1019.7 1019.7 -
25/01:30am 13.4 - - - - NNW 11 15 6 8 1020.0 1020.0 -
25/01:00am 13.3 - - - - NW 11 17 6 9 1020.4 1020.4 -
25/12:30am 13.5 - - - - NW 11 15 6 8 1020.3 1020.3 -
25/12:00am 14.1 - - - - WNW 6 9 3 5 1020.3 1020.3 -
 
Date/Time
EDT
Temp
°C
App
Temp
°C
Dew
Point
Rel
Hum
%
Delta-T
°C
Wind Press
QNH
hPa
Press
MSL
hPa
Rain
since 9 am
mm
Dir
 
Spd
km/h
Gust
km/h
Spd
kts
Gust
kts
24/11:30pm 14.2 - - - - NNW 9 11 5 6 1020.6 1020.6 -
24/11:00pm 13.9 - - - - NW 9 13 5 7 1021.1 1021.1 -
24/10:30pm 13.9 - - - - NNW 9 11 5 6 1021.0 1021.0 -
24/10:00pm 13.8 - - - - WNW 9 15 5 8 1020.9 1020.9 -
24/09:30pm 14.2 - - - - NNW 7 13 4 7 1020.7 1020.7 -
24/09:00pm 14.0 - - - - NNW 2 4 1 2 1020.7 1020.7 -
24/08:30pm 14.1 - - - - SW 6 11 3 6 1020.8 1020.8 -
24/08:00pm 14.1 - - - - SSW 4 6 2 3 1020.7 1020.7 -
24/07:30pm 14.2 - - - - SSE 4 6 2 3 1020.7 1020.7 -
24/07:00pm 14.2 - - - - S 6 9 3 5 1020.8 1020.8 -
24/06:30pm 14.3 - - - - S 11 17 6 9 1020.7 1020.7 -
24/06:00pm 14.1 - - - - S 11 17 6 9 1020.7 1020.7 -
24/05:30pm 14.1 - - - - SSW 15 20 8 11 1020.9 1020.9 -
24/05:00pm 14.1 - - - - SSW 17 22 9 12 1021.0 1021.0 -
24/04:30pm 14.3 - - - - S 22 30 12 16 1020.7 1020.7 -

Other Formats:

Comma delimited format used in spreadsheet applications
http://www.bom.gov.au/fwo/IDV60801/IDV60801.95826.axf

JavaScript Object Notation format (JSON) in row-major order
http://www.bom.gov.au/fwo/IDV60801/IDV60801.95826.json